AirNav   Everest Fuels
 
 1392 users online  

MO82 Howard Airport
Gorin, Missouri, USA

GOING TO GORIN?


FAA INFORMATION EFFECTIVE 01 DECEMBER 2022

Location

FAA Identifier: MO82
Lat/Long: 40-24-32.1300N 092-03-24.6380W
40-24.535500N 092-03.410633W
40.4089250,-92.0568439
(estimated)
Elevation: 740 ft. / 226 m (estimated)
Variation: 03E (1985)
From city: 3 miles NW of GORIN, MO
Time zone: UTC -6 (UTC -5 during Daylight Saving Time)
Zip code: 63555

Airport Operations

Airport use: Private use. Permission required prior to landing
Activation date: 08/1961
Control tower: no
ARTCC: KANSAS CITY CENTER
FSS: COLUMBIA FLIGHT SERVICE STATION
Attendance: UNATNDD
Segmented circle: no

Nearby radio navigation aids

VOR radial/distance  VOR name  Freq  Var
IRKr050/29.5KIRKSVILLE VORTAC114.6006E
OTMr156/39.2OTTUMWA VOR/DME111.6006E

 
NDB name  Hdg/Dist  Freq  Var  ID
BLOOMFIELD138/26.426902EBEX -... . -..-
KEOKUK261/28.736602EEOK . --- -.-

Airport Services

Parking: tiedowns
Airframe service: NONE
Powerplant service: NONE
Bottled oxygen: NONE
Bulk oxygen: NONE

Runway Information

Runway 9/27

Dimensions: 2050 x 55 ft. / 625 x 17 m
Surface: turf, in fair condition
RUNWAY 9  RUNWAY 27
Traffic pattern: leftleft
Markings: nonenone
Runway end identifier lights: nono
Obstructions: 7 ft. gnd, 25 ft. left of centerline
TREES 175' LEFT OF RWY CNTRLN EXTDD.
4 ft. fence
TREE 150' LEFT OF RWY CNTRLN EXTDD.

Airport Ownership and Management from official FAA records

Ownership: Privately-owned
Owner: ALVIN R HOWARD
RT 1
GORIN, MO 63543
Phone 816-465-2779
Manager: NEIL. HOWARD
RRI BOX 93
GORIN, MO 63543
Phone 660-341-9595

Airport Operational Statistics

Aircraft based on the field: 1
Single engine airplanes: 1
    
Aircraft operations: avg 21/month *
80% local general aviation
20% transient general aviation
* for 12-month period ending 03 September 1986

Additional Remarks

RWY END 09 VERY UNEVEN; CAUTION - RWY 09/27 ROLLING AND UNEVEN.
HAY BALES, VEHICLES, CROPS & HIGH GND IN PRIM SFC.
FOR CD CTC KANSAS CITY ARTCC AT 913-254-8508.

Instrument Procedures

There are no published instrument procedures at MO82.

Some nearby airports with instrument procedures:

03D - Memphis Memorial Airport (8 nm W)
6M6 - Lewis County Regional Airport (24 nm SE)
4K6 - Bloomfield Municipal Airport (26 nm NW)
KEOK - Keokuk Municipal Airport (29 nm E)
KIRK - Kirksville Regional Airport (29 nm SW)
 
Loc | Ops | Rwys | IFR | FBO | Links
Com | Nav | Svcs | Stats | Notes
Area around MO82 (Howard Airport)
 
Road maps at: MapQuest Bing Google
 
Aerial photo
No photo
 
Sectional chart

 
Airport distance calculator
Flying to Howard Airport? Find the distance to fly.

From to MO82

Sunrise and sunset
Times for 02-Dec-2022
 Local
(UTC-6)
 Zulu
(UTC)
Morning civil twilight06:4412:44
Sunrise07:1413:14
Sunset16:4122:41
Evening civil twilight17:1223:12

Current date and time
Zulu (UTC)  02-Dec-2022 15:43:11
Local (UTC-6)  02-Dec-2022 09:43:11
 
METAR
KIRK 
29nm SW 
021455Z AUTO 19015G28KT 10SM CLR 08/M01 A2980 RMK AO2 PK WND 18028/1417 SLP098 T00831006 56023
KEOK 
29nm E 
021515Z AUTO 19011G19KT 10SM CLR 09/M01 A2982 RMK A01
KFSW 
37nm NE 
021515Z AUTO 17013G17KT 10SM 07/M02 A2980 RMK AO2
KFFL 
38nm N 
021515Z AUTO 18014G20KT 10SM 07/M04 A2977 RMK A01
KTVK 
42nm NW 
021515Z AUTO 17018KT 10SM CLR 07/M01 A2974 RMK AO2
KOTM 
45nm NW 
021453Z AUTO 18013KT 10SM CLR 05/M04 A2975 RMK AO2 SLP081 T00501039 56019
KBRL 
47nm NE 
021453Z AUTO 18014KT 10SM CLR 06/M03 A2983 RMK AO2 SLP107 T00611033 58027
KUIN 
48nm SE 
021454Z AUTO 18014G21KT 10SM BKN028 09/M03 A2986 RMK AO2 SLP115 T00891028 58027
KHAE 
50nm SE 
021515Z AUTO 18013G18KT 10SM BKN027 10/M02 A2986 RMK AO2
TAF
KOTM 
45nm NW 
021129Z 0212/0312 17012G18KT P6SM SCT025 BKN200 WS020/20040KT FM021600 19020G31KT P6SM BKN025 FM022200 21017G27KT P6SM BKN050 FM030200 29027G41KT P6SM BKN030 FM031000 31015G26KT P6SM SCT030
KBRL 
47nm NE 
021348Z 0214/0312 19017G30KT P6SM BKN100 FM030400 29028G40KT P6SM BKN025 FM030800 32025G36KT P6SM BKN035
KUIN 
48nm SE 
021129Z 0212/0312 17014G22KT P6SM BKN150 FM021800 20021G37KT P6SM BKN050 FM030300 23015G27KT P6SM BKN020 FM030600 31022G34KT P6SM SCT045
NOTAMs
Click for the latest NOTAMs
NOTAMs are issued by the DoD/FAA and will open in a separate window not controlled by AirNav.

 

 
 

Would you like to see your business listed on this page?

 If your business provides an interesting product or service to pilots, flight crews, aircraft, or users of the Howard Airport, you should consider listing it here.  To start the listing process, click on the button below
 
Add a business
 

Other Pages about Howard Airport

Update a link
 
Copyright © AirNav, LLC. All rights reserved. Privacy Policy  Contact